Impacts METAR Board
IDs:

KSEA - Seattle-Tacoma Intl, WA, US

Updated at: 1000 UTC 16 Jul 2019
Potential Impact None Slight Moderate High
Time 15/22Z 15/23Z 16/00Z 16/01Z 16/02Z 16/03Z 16/04Z 16/05Z 16/06Z 16/07Z 16/08Z 16/09Z 16/10Z
Temp66 66 70 69 70 70 68 67 66 66 64 63 62
Dewpt58 60 60 57 56 57 57 57 57 58 58 58 57
Altim30.09 30.08 30.07 30.06 30.05 30.05 30.05 30.05 30.05 30.05 30.05 30.04 30.04
VIS10 10 10 10 10 10 10 10 10 10 10 10 10
CIG55 42 65 43 45 60 60 85 65 22 45 55 47
CoverOVCBKNBKNBKNBKNBKNBKNBKNBKNOVCBKNBKNBKN
FltCatVFRVFRVFRVFRVFRVFRVFRVFRVFRMVFRVFRVFRVFR
WX--------------------------
WDir220190210200190200210220180200230240160
WSpd8 8 5 7 6 6 5 3 3 5 5 3 3
WGst-- -- -- -- -- -- -- -- -- -- -- -- --
Raw hourly METARs
KSEA 152153Z 22008KT 10SM FEW020 OVC055 19/14 A3009 RMK AO2 RAB19E30 SLP192 P0001 T01890144
KSEA 152253Z 19008KT 10SM FEW020 BKN042 BKN070 19/16 A3008 RMK AO2 RAB06E37 SLP191 P0001 T01890156
KSEA 152353Z 21005KT 10SM FEW019 BKN065 BKN120 21/16 A3007 RMK AO2 SLP187 60002 T02110156 10211 20178 58008
KSEA 160053Z 20007KT 10SM SCT021 BKN043 BKN090 21/14 A3006 RMK AO2 SLP183 T02060139
KSEA 160153Z 19006KT 10SM FEW020 BKN045 BKN090 21/13 A3005 RMK AO2 SLP182 T02110133
KSEA 160253Z 20006KT 10SM FEW025 BKN060 BKN120 21/14 A3005 RMK AO2 SLP181 T02110139 56006
KSEA 160353Z 21005KT 10SM SCT038 BKN060 20/14 A3005 RMK AO2 SLP181 T02000139
KSEA 160453Z 22003KT 10SM FEW037 SCT050 BKN085 19/14 A3005 RMK AO2 SLP181 T01940139
KSEA 160553Z 18003KT 10SM FEW040 BKN065 19/14 A3005 RMK AO2 SLP181 T01890139 10217 20189 50000
KSEA 160653Z 20005KT 10SM BKN022 BKN043 OVC060 19/14 A3005 RMK AO2 SLP182 T01890144
KSEA 160753Z 23005KT 10SM FEW027 BKN045 BKN080 18/14 A3005 RMK AO2 RAB04E15 SLP180 P0000 T01780144 402170167
KSEA 160853Z 24003KT 10SM FEW030 BKN055 17/14 A3004 RMK AO2 SLP177 60000 T01720144 58004
KSEA 160953Z 16003KT 10SM FEW025 BKN047 17/14 A3004 RMK AO2 SLP176 T01670139



Page loaded:  10:24 UTC  |   03:24 AM Pacific  |   04:24 AM Mountain  |   05:24 AM Central  |   06:24 AM Eastern

 

ADVISORIES

FORECASTS

FORECASTS

OBSERVATIONS

USER TOOLS

ABOUT US